Time;durP1;ratioP1;P1;durP2;ratioP2;P2;SDS_P1;SDS_P2;PMS_P1;PMS_P2;Temp;Humidity;BMP_temperature;BMP_pressure;BME280_temperature;BME280_humidity;BME280_pressure;Samples;Min_cycle;Max_cycle;Signal;HPM_P1;HPM_P2
2022/04/16 00:02:03;;;;;;;13.73;9.95;;;;;;;;;;5074423;28;20042;-64
2022/04/16 00:04:30;;;;;;;14.57;10.68;;;;;;;;;;5081877;28;20127;-64
2022/04/16 00:06:56;;;;;;;12.80;8.93;;;;;;;;;;5082979;28;20040;-64
2022/04/16 00:09:23;;;;;;;13.48;10.95;;;;;;;;;;5076291;28;20079;-64
2022/04/16 00:11:49;;;;;;;12.57;9.30;;;;;;;;;;5086409;28;20040;-64
2022/04/16 00:14:16;;;;;;;12.25;9.48;;;;;;;;;;5077281;28;20409;-65
2022/04/16 00:16:44;;;;;;;11.32;8.88;;;;;;;;;;5074972;28;20040;-64
2022/04/16 00:19:11;;;;;;;12.00;8.93;;;;;;;;;;5077202;28;20123;-64
2022/04/16 00:21:37;;;;;;;15.18;10.25;;;;;;;;;;5078318;28;20047;-64
2022/04/16 00:24:04;;;;;;;13.32;9.45;;;;;;;;;;5080848;28;20101;-64
2022/04/16 00:26:30;;;;;;;15.15;9.50;;;;;;;;;;5071663;28;20048;-64
2022/04/16 00:28:59;;;;;;;12.82;9.40;;;;;;;;;;5065154;28;20044;-64
2022/04/16 00:31:28;;;;;;;13.55;9.82;;;;;;;;;;5059593;28;20122;-64
2022/04/16 00:33:54;;;;;;;12.93;9.13;;;;;;;;;;5087514;28;20043;-64
2022/04/16 00:36:20;;;;;;;13.02;9.30;;;;;;;;;;5077072;28;20044;-64
2022/04/16 00:38:46;;;;;;;13.43;8.95;;;;;;;;;;5079352;28;20043;-64
2022/04/16 00:41:13;;;;;;;14.13;8.90;;;;;;;;;;5084542;28;20036;-64
2022/04/16 00:43:39;;;;;;;14.50;8.98;;;;;;;;;;5086164;28;20075;-64
2022/04/16 00:46:05;;;;;;;14.05;9.82;;;;;;;;;;5086748;28;20123;-64
2022/04/16 00:48:32;;;;;;;15.40;9.60;;;;;;;;;;5078902;28;20397;-64
2022/04/16 00:50:59;;;;;;;12.05;9.23;;;;;;;;;;5064991;28;20084;-64
2022/04/16 00:53:25;;;;;;;14.55;10.85;;;;;;;;;;5080055;28;20044;-64
2022/04/16 00:55:52;;;;;;;13.93;10.10;;;;;;;;;;5084799;28;20079;-63
2022/04/16 00:58:18;;;;;;;14.40;10.32;;;;;;;;;;5082674;28;20032;-63
2022/04/16 01:00:44;;;;;;;16.23;11.10;;;;;;;;;;5074482;28;20481;-64
2022/04/16 01:03:10;;;;;;;13.77;10.02;;;;;;;;;;5085202;28;20044;-64
2022/04/16 01:05:37;;;;;;;16.77;12.25;;;;;;;;;;5083431;28;20071;-63
2022/04/16 01:08:04;;;;;;;13.57;10.10;;;;;;;;;;5076134;28;20513;-64
2022/04/16 01:10:31;;;;;;;14.45;10.13;;;;;;;;;;5081152;28;20037;-64
2022/04/16 01:12:58;;;;;;;15.93;11.18;;;;;;;;;;5083742;28;20568;-63
2022/04/16 01:15:25;;;;;;;19.17;13.00;;;;;;;;;;5070340;28;20528;-63
2022/04/16 01:17:52;;;;;;;18.88;12.18;;;;;;;;;;5086602;28;20073;-63
2022/04/16 01:20:19;;;;;;;17.35;11.40;;;;;;;;;;5079655;28;20123;-64
2022/04/16 01:22:46;;;;;;;17.90;12.30;;;;;;;;;;5087420;28;20055;-64
2022/04/16 01:25:12;;;;;;;16.35;11.45;;;;;;;;;;5081310;28;20482;-63
2022/04/16 01:27:43;;;;;;;19.10;13.20;;;;;;;;;;5070498;28;20051;-64
2022/04/16 01:30:19;;;;;;;18.60;11.90;;;;;;;;;;5063797;28;20051;-63
2022/04/16 01:32:48;;;;;;;18.45;12.55;;;;;;;;;;5090420;28;20411;-64
2022/04/16 01:35:15;;;;;;;20.10;13.88;;;;;;;;;;5077216;28;20045;-64
2022/04/16 01:37:41;;;;;;;19.52;12.18;;;;;;;;;;5088521;28;20624;-64
2022/04/16 01:40:08;;;;;;;17.30;13.07;;;;;;;;;;5086822;28;20039;-64
2022/04/16 01:42:34;;;;;;;18.80;13.48;;;;;;;;;;5090122;28;20046;-64
2022/04/16 01:45:01;;;;;;;21.65;14.10;;;;;;;;;;5089248;28;20504;-64
2022/04/16 01:47:28;;;;;;;16.75;12.73;;;;;;;;;;5079200;28;20064;-64
2022/04/16 01:49:55;;;;;;;21.00;13.38;;;;;;;;;;5090274;28;20888;-64
2022/04/16 01:52:23;;;;;;;16.98;12.52;;;;;;;;;;5086925;28;20131;-64
2022/04/16 01:54:49;;;;;;;18.70;13.73;;;;;;;;;;5089520;28;20443;-63
2022/04/16 01:57:18;;;;;;;16.88;12.60;;;;;;;;;;5090768;28;20058;-63
2022/04/16 01:59:46;;;;;;;21.77;14.02;;;;;;;;;;5081365;28;20048;-64
2022/04/16 02:02:13;;;;;;;18.10;13.25;;;;;;;;;;5087593;28;20036;-63
2022/04/16 02:04:39;;;;;;;21.55;16.00;;;;;;;;;;5086496;28;20036;-64
2022/04/16 02:07:06;;;;;;;20.30;13.55;;;;;;;;;;5088823;28;20040;-63
2022/04/16 02:09:32;;;;;;;19.65;13.73;;;;;;;;;;5089254;28;20606;-64
2022/04/16 02:11:58;;;;;;;17.60;12.35;;;;;;;;;;5088308;28;20071;-63
2022/04/16 02:14:25;;;;;;;18.75;13.48;;;;;;;;;;5089778;28;20075;-64
2022/04/16 02:16:51;;;;;;;21.55;13.95;;;;;;;;;;5088395;28;20480;-63
2022/04/16 02:19:17;;;;;;;19.98;13.35;;;;;;;;;;5086792;28;20101;-63
2022/04/16 02:21:47;;;;;;;21.25;14.88;;;;;;;;;;5090426;28;20123;-63
2022/04/16 02:24:14;;;;;;;17.48;12.98;;;;;;;;;;5068301;28;20046;-63
2022/04/16 02:26:40;;;;;;;22.88;14.05;;;;;;;;;;5083040;28;20028;-64
2022/04/16 02:29:08;;;;;;;19.00;14.10;;;;;;;;;;5069300;28;20036;-63
2022/04/16 02:31:34;;;;;;;17.50;14.02;;;;;;;;;;5087361;28;20044;-63
2022/04/16 02:34:00;;;;;;;21.17;15.38;;;;;;;;;;5071567;28;20047;-64
2022/04/16 02:36:26;;;;;;;17.42;12.73;;;;;;;;;;5068903;28;20253;-64
2022/04/16 02:38:54;;;;;;;21.52;13.45;;;;;;;;;;5090080;28;20058;-64
2022/04/16 02:41:21;;;;;;;17.35;12.88;;;;;;;;;;5089256;28;20052;-64
2022/04/16 02:43:47;;;;;;;19.80;13.32;;;;;;;;;;5087247;28;20107;-64
2022/04/16 02:49:00;;;;;;;20.27;13.70;;;;;;;;;;5088643;28;20044;-63
2022/04/16 02:51:27;;;;;;;18.85;14.02;;;;;;;;;;5086484;28;20047;-63
2022/04/16 02:53:53;;;;;;;19.17;13.73;;;;;;;;;;5071558;28;20036;-63
2022/04/16 02:56:20;;;;;;;21.52;13.50;;;;;;;;;;5086789;28;20123;-63
2022/04/16 02:58:46;;;;;;;19.77;13.77;;;;;;;;;;5069992;28;20047;-64
2022/04/16 03:01:12;;;;;;;21.48;14.07;;;;;;;;;;5088812;28;20043;-64
2022/04/16 03:03:38;;;;;;;19.67;14.63;;;;;;;;;;5087157;28;20043;-64
2022/04/16 03:06:04;;;;;;;17.95;13.07;;;;;;;;;;5087940;28;20051;-63
2022/04/16 03:08:30;;;;;;;20.25;15.23;;;;;;;;;;5089500;28;20397;-63
2022/04/16 03:10:56;;;;;;;23.00;15.75;;;;;;;;;;5089274;28;20595;-63
2022/04/16 03:13:23;;;;;;;22.85;15.75;;;;;;;;;;5088989;28;20036;-63
2022/04/16 03:18:34;;;;;;;18.52;13.77;;;;;;;;;;5088542;28;20047;-63
2022/04/16 03:21:01;;;;;;;20.20;13.38;;;;;;;;;;5088883;28;20043;-64
2022/04/16 03:23:28;;;;;;;19.92;14.95;;;;;;;;;;5070025;28;20036;-64
2022/04/16 03:25:56;;;;;;;20.38;15.02;;;;;;;;;;5089118;28;20036;-63
2022/04/16 03:28:23;;;;;;;19.15;14.27;;;;;;;;;;5068026;28;20044;-63
2022/04/16 03:30:49;;;;;;;25.88;16.27;;;;;;;;;;5088741;28;20107;-63
2022/04/16 03:33:15;;;;;;;20.98;15.27;;;;;;;;;;5087563;28;20119;-63
2022/04/16 03:35:41;;;;;;;21.83;14.70;;;;;;;;;;5085366;28;20127;-63
2022/04/16 03:38:07;;;;;;;21.35;14.40;;;;;;;;;;5066644;28;20459;-64
2022/04/16 03:40:33;;;;;;;18.27;13.27;;;;;;;;;;5088814;28;20036;-63
2022/04/16 03:43:00;;;;;;;20.83;15.27;;;;;;;;;;5065780;28;20036;-64
2022/04/16 03:45:27;;;;;;;17.42;14.30;;;;;;;;;;5088127;28;20251;-64
2022/04/16 03:47:54;;;;;;;23.73;15.45;;;;;;;;;;5087485;28;20315;-64
2022/04/16 03:50:21;;;;;;;20.13;14.48;;;;;;;;;;5087886;28;20044;-64
2022/04/16 03:52:49;;;;;;;21.50;15.13;;;;;;;;;;5087722;28;20127;-64
2022/04/16 04:00:46;;;;;;;19.40;14.80;;;;;;;;;;5066187;28;20048;-63
2022/04/16 04:03:12;;;;;;;20.15;14.60;;;;;;;;;;5086213;28;20044;-64
2022/04/16 04:05:39;;;;;;;21.98;14.85;;;;;;;;;;5088182;28;20031;-63
2022/04/16 04:08:05;;;;;;;20.55;15.20;;;;;;;;;;5085043;28;20252;-64
2022/04/16 04:10:31;;;;;;;20.48;14.57;;;;;;;;;;5085226;28;20047;-64
2022/04/16 04:12:57;;;;;;;22.25;15.70;;;;;;;;;;5084045;28;20039;-64
2022/04/16 04:15:32;;;;;;;23.08;17.20;;;;;;;;;;5065471;28;20406;-64
2022/04/16 04:18:00;;;;;;;23.27;16.02;;;;;;;;;;5084473;28;20749;-64
2022/04/16 04:20:27;;;;;;;21.50;17.00;;;;;;;;;;5085523;28;20040;-64
2022/04/16 04:22:53;;;;;;;28.70;17.67;;;;;;;;;;5084676;28;20032;-64
2022/04/16 04:25:19;;;;;;;24.65;16.30;;;;;;;;;;5086305;28;20036;-64
2022/04/16 04:27:46;;;;;;;23.08;15.77;;;;;;;;;;5086028;28;20093;-64
2022/04/16 04:30:12;;;;;;;24.48;17.20;;;;;;;;;;5087583;28;20130;-63
2022/04/16 04:32:38;;;;;;;19.77;15.13;;;;;;;;;;5088810;28;20093;-63
2022/04/16 04:35:05;;;;;;;24.23;16.48;;;;;;;;;;5085580;28;20048;-64
2022/04/16 04:37:31;;;;;;;24.75;16.38;;;;;;;;;;5087449;28;20052;-63
2022/04/16 04:39:57;;;;;;;23.55;17.10;;;;;;;;;;5085871;28;20048;-64
2022/04/16 04:42:24;;;;;;;25.35;16.52;;;;;;;;;;5086450;28;20105;-63
2022/04/16 04:44:50;;;;;;;22.35;15.68;;;;;;;;;;5069009;28;20032;-63
2022/04/16 04:47:16;;;;;;;26.73;15.60;;;;;;;;;;5086502;28;20032;-63
2022/04/16 04:49:43;;;;;;;21.70;16.27;;;;;;;;;;5065638;28;20044;-64
2022/04/16 04:52:09;;;;;;;24.10;17.67;;;;;;;;;;5087179;28;20052;-64
2022/04/16 04:54:35;;;;;;;25.20;15.75;;;;;;;;;;5068610;28;20105;-63
2022/04/16 04:57:03;;;;;;;27.50;18.77;;;;;;;;;;5085400;28;20053;-64
2022/04/16 04:59:29;;;;;;;24.05;16.30;;;;;;;;;;5086612;28;20108;-64
2022/04/16 05:01:55;;;;;;;23.00;16.92;;;;;;;;;;5087005;28;20057;-63
2022/04/16 05:04:22;;;;;;;23.50;17.00;;;;;;;;;;5085990;28;20031;-64
2022/04/16 05:06:48;;;;;;;26.27;16.23;;;;;;;;;;5087416;28;20032;-63
2022/04/16 05:09:14;;;;;;;25.67;18.02;;;;;;;;;;5086924;28;20047;-63
2022/04/16 05:11:40;;;;;;;29.35;19.23;;;;;;;;;;5087980;28;20040;-64
2022/04/16 05:14:06;;;;;;;28.00;17.83;;;;;;;;;;5087141;28;20071;-63
2022/04/16 05:16:32;;;;;;;27.13;18.55;;;;;;;;;;5085799;28;20032;-64
2022/04/16 05:18:58;;;;;;;29.77;18.38;;;;;;;;;;5086412;28;20504;-64
2022/04/16 05:21:24;;;;;;;29.00;18.50;;;;;;;;;;5086727;28;20043;-63
2022/04/16 05:23:50;;;;;;;30.75;21.02;;;;;;;;;;5086995;28;20039;-64
2022/04/16 05:26:16;;;;;;;28.75;20.40;;;;;;;;;;5065858;28;20113;-63
2022/04/16 05:28:43;;;;;;;30.08;20.45;;;;;;;;;;5087192;28;20040;-64
2022/04/16 05:31:09;;;;;;;32.70;21.08;;;;;;;;;;5083762;28;20378;-63
2022/04/16 05:36:20;;;;;;;34.05;22.42;;;;;;;;;;5086742;28;20416;-64
2022/04/16 05:38:46;;;;;;;34.38;22.83;;;;;;;;;;5086270;28;20043;-63
2022/04/16 05:41:13;;;;;;;34.50;23.55;;;;;;;;;;5084274;28;20041;-64
2022/04/16 05:43:39;;;;;;;34.08;23.20;;;;;;;;;;5080503;28;20490;-64
2022/04/16 05:46:05;;;;;;;36.20;25.48;;;;;;;;;;5086092;28;20478;-64
2022/04/16 05:48:31;;;;;;;38.35;25.95;;;;;;;;;;5084291;28;20111;-64
2022/04/16 05:50:58;;;;;;;39.20;26.48;;;;;;;;;;5086922;28;21361;-64
2022/04/16 05:53:24;;;;;;;38.00;25.45;;;;;;;;;;5085122;28;20044;-64
2022/04/16 05:55:51;;;;;;;36.63;25.02;;;;;;;;;;5087006;28;20090;-63
2022/04/16 05:58:17;;;;;;;40.03;26.75;;;;;;;;;;5088886;28;20044;-64
2022/04/16 06:00:44;;;;;;;36.45;25.70;;;;;;;;;;5090444;28;20046;-64
2022/04/16 06:03:10;;;;;;;37.85;24.98;;;;;;;;;;5053450;28;20062;-64
2022/04/16 06:05:36;;;;;;;40.20;25.92;;;;;;;;;;5089621;28;20039;-64
2022/04/16 06:08:03;;;;;;;39.10;26.15;;;;;;;;;;5052568;28;20040;-64
2022/04/16 06:10:29;;;;;;;41.63;25.55;;;;;;;;;;5089176;28;20035;-63
2022/04/16 06:12:55;;;;;;;41.42;26.80;;;;;;;;;;5090348;28;20078;-64
2022/04/16 06:15:22;;;;;;;40.13;25.83;;;;;;;;;;5068904;28;20047;-64
2022/04/16 06:17:48;;;;;;;38.88;24.88;;;;;;;;;;5089226;28;20040;-63
2022/04/16 06:20:14;;;;;;;33.20;23.08;;;;;;;;;;5087029;28;20058;-63
2022/04/16 06:22:40;;;;;;;31.08;22.08;;;;;;;;;;5089405;28;20117;-64
2022/04/16 06:25:08;;;;;;;30.33;22.40;;;;;;;;;;5089519;28;20529;-64
2022/04/16 06:27:38;;;;;;;35.90;23.77;;;;;;;;;;5089455;28;20559;-64
2022/04/16 06:30:05;;;;;;;32.38;22.98;;;;;;;;;;5086446;28;20048;-64
2022/04/16 06:32:31;;;;;;;31.67;24.15;;;;;;;;;;5087001;28;20055;-63
2022/04/16 06:34:57;;;;;;;32.85;21.50;;;;;;;;;;5089520;28;20476;-63
2022/04/16 06:37:23;;;;;;;33.00;22.42;;;;;;;;;;5089918;28;20113;-63
2022/04/16 06:39:49;;;;;;;24.33;19.77;;;;;;;;;;5088368;28;20064;-63
2022/04/16 06:42:15;;;;;;;24.80;18.27;;;;;;;;;;5089716;28;20051;-64
2022/04/16 06:44:42;;;;;;;23.95;16.77;;;;;;;;;;5088288;28;20059;-64
2022/04/16 06:47:08;;;;;;;26.38;18.08;;;;;;;;;;5089612;28;20078;-64
2022/04/16 06:49:34;;;;;;;25.67;17.00;;;;;;;;;;5086210;28;20228;-63
2022/04/16 06:52:00;;;;;;;21.27;14.18;;;;;;;;;;5089727;28;20047;-63
2022/04/16 06:54:26;;;;;;;23.50;15.45;;;;;;;;;;5090080;28;20044;-64
2022/04/16 06:56:52;;;;;;;20.95;13.68;;;;;;;;;;5089760;28;20036;-63
2022/04/16 06:59:18;;;;;;;17.73;13.50;;;;;;;;;;5085684;28;20044;-63
2022/04/16 07:01:44;;;;;;;20.00;13.82;;;;;;;;;;5089096;28;20048;-63
2022/04/16 07:04:11;;;;;;;17.75;12.88;;;;;;;;;;5088689;28;20077;-63
2022/04/16 07:06:39;;;;;;;27.75;15.68;;;;;;;;;;5086788;28;20092;-63
2022/04/16 07:09:06;;;;;;;25.40;14.20;;;;;;;;;;5067719;28;20036;-63
2022/04/16 07:11:33;;;;;;;21.50;13.88;;;;;;;;;;5088434;28;20635;-65
2022/04/16 07:13:59;;;;;;;18.17;13.38;;;;;;;;;;5087958;28;20067;-64
2022/04/16 07:16:26;;;;;;;22.77;14.32;;;;;;;;;;5066873;28;20032;-64
2022/04/16 07:18:52;;;;;;;19.42;12.68;;;;;;;;;;5070331;28;20177;-64
2022/04/16 07:21:18;;;;;;;20.88;13.77;;;;;;;;;;5068067;28;20047;-64
2022/04/16 07:23:44;;;;;;;20.23;11.75;;;;;;;;;;5082148;28;20052;-64
2022/04/16 07:26:10;;;;;;;15.60;10.93;;;;;;;;;;5085144;28;20119;-63
2022/04/16 07:28:36;;;;;;;20.13;12.13;;;;;;;;;;5086777;28;20408;-64
2022/04/16 07:31:02;;;;;;;15.85;12.27;;;;;;;;;;5067711;28;20044;-64
2022/04/16 07:33:29;;;;;;;16.75;12.45;;;;;;;;;;5087258;28;20154;-64
2022/04/16 07:35:55;;;;;;;18.20;13.40;;;;;;;;;;5087210;28;20054;-64
2022/04/16 07:38:22;;;;;;;16.92;12.48;;;;;;;;;;5070953;28;20493;-64
2022/04/16 07:40:48;;;;;;;18.15;11.98;;;;;;;;;;5086513;28;20064;-64
2022/04/16 07:43:18;;;;;;;18.30;11.38;;;;;;;;;;5066325;28;20086;-64
2022/04/16 07:45:44;;;;;;;20.35;12.93;;;;;;;;;;5083187;28;20043;-64
2022/04/16 07:48:10;;;;;;;15.80;11.50;;;;;;;;;;5087428;28;20486;-63
2022/04/16 07:50:37;;;;;;;16.90;12.15;;;;;;;;;;5083346;28;20117;-64
2022/04/16 07:53:04;;;;;;;17.35;12.43;;;;;;;;;;5088573;28;20131;-64
2022/04/16 07:55:33;;;;;;;17.40;11.15;;;;;;;;;;5062251;28;20062;-63
2022/04/16 07:58:00;;;;;;;18.48;11.90;;;;;;;;;;5081754;28;20039;-64
2022/04/16 08:00:26;;;;;;;16.23;10.55;;;;;;;;;;5083813;28;20485;-64
2022/04/16 08:02:52;;;;;;;21.48;12.68;;;;;;;;;;5084533;28;20036;-64
2022/04/16 08:05:18;;;;;;;14.07;9.70;;;;;;;;;;5064529;28;20039;-64
2022/04/16 08:07:45;;;;;;;16.13;11.52;;;;;;;;;;5066624;28;20043;-64
2022/04/16 08:10:12;;;;;;;18.52;10.98;;;;;;;;;;5084842;28;20040;-64
2022/04/16 08:12:38;;;;;;;17.00;11.70;;;;;;;;;;5084855;28;20075;-64
2022/04/16 08:15:06;;;;;;;14.45;10.35;;;;;;;;;;5065316;28;20052;-64
2022/04/16 08:17:32;;;;;;;16.75;10.27;;;;;;;;;;5064557;28;20044;-64
2022/04/16 08:19:59;;;;;;;17.02;10.52;;;;;;;;;;5085042;28;20043;-64
2022/04/16 08:22:28;;;;;;;13.82;10.73;;;;;;;;;;5083235;28;20046;-64
2022/04/16 08:27:39;;;;;;;16.77;9.93;;;;;;;;;;5082248;28;20526;-64
2022/04/16 08:30:07;;;;;;;12.73;9.52;;;;;;;;;;5084623;28;20123;-63
2022/04/16 08:32:37;;;;;;;11.23;9.23;;;;;;;;;;5083939;28;20044;-64
2022/04/16 08:35:04;;;;;;;14.65;8.70;;;;;;;;;;5084220;28;20082;-64
2022/04/16 08:37:31;;;;;;;13.02;9.00;;;;;;;;;;5083652;28;20397;-64
2022/04/16 08:39:58;;;;;;;13.43;9.00;;;;;;;;;;5080276;28;20090;-64
2022/04/16 08:42:24;;;;;;;12.10;8.52;;;;;;;;;;5082305;28;20044;-64
2022/04/16 08:44:51;;;;;;;12.30;8.02;;;;;;;;;;5084069;28;20032;-63
2022/04/16 08:47:17;;;;;;;14.90;10.40;;;;;;;;;;5082230;28;20089;-64
2022/04/16 08:49:44;;;;;;;10.85;7.72;;;;;;;;;;5061421;28;20467;-64
2022/04/16 08:52:11;;;;;;;11.68;8.63;;;;;;;;;;5062682;28;20051;-64
2022/04/16 08:54:39;;;;;;;12.82;8.30;;;;;;;;;;5063679;28;20052;-63
2022/04/16 08:57:06;;;;;;;10.82;8.18;;;;;;;;;;5046778;28;20044;-63
2022/04/16 08:59:32;;;;;;;9.20;7.30;;;;;;;;;;5063665;28;20678;-64
2022/04/16 09:01:59;;;;;;;9.48;7.30;;;;;;;;;;5059303;28;20036;-63
2022/04/16 09:04:27;;;;;;;10.93;7.50;;;;;;;;;;5060844;28;20056;-63
2022/04/16 09:06:57;;;;;;;12.73;7.97;;;;;;;;;;5064201;28;20048;-64
2022/04/16 09:09:24;;;;;;;8.65;6.80;;;;;;;;;;5063461;28;20149;-63
2022/04/16 09:11:50;;;;;;;8.98;6.43;;;;;;;;;;5063932;28;20085;-64
2022/04/16 09:14:17;;;;;;;7.18;5.55;;;;;;;;;;5060899;28;20045;-63
2022/04/16 09:16:43;;;;;;;11.45;6.43;;;;;;;;;;5062683;28;20056;-64
2022/04/16 09:19:16;;;;;;;8.38;6.13;;;;;;;;;;5061157;28;20049;-63
2022/04/16 09:21:43;;;;;;;9.73;5.85;;;;;;;;;;5059143;28;20101;-63
2022/04/16 09:24:10;;;;;;;8.70;4.78;;;;;;;;;;5064252;28;20040;-63
2022/04/16 09:26:37;;;;;;;6.93;5.10;;;;;;;;;;5060632;28;20084;-64
2022/04/16 09:29:07;;;;;;;9.68;5.25;;;;;;;;;;5056502;28;20037;-65
2022/04/16 09:31:34;;;;;;;7.07;4.95;;;;;;;;;;5061216;28;20498;-63
2022/04/16 09:34:01;;;;;;;7.15;4.88;;;;;;;;;;5065536;28;20072;-63
2022/04/16 09:36:27;;;;;;;6.72;4.03;;;;;;;;;;5066107;28;20055;-63
2022/04/16 09:39:04;;;;;;;4.97;3.60;;;;;;;;;;5065230;28;20213;-64
2022/04/16 09:41:31;;;;;;;7.20;4.07;;;;;;;;;;5067385;28;20032;-62
2022/04/16 09:43:58;;;;;;;4.50;3.20;;;;;;;;;;5066785;28;20044;-63
2022/04/16 09:46:26;;;;;;;7.63;4.90;;;;;;;;;;5065554;28;20033;-64
2022/04/16 09:48:55;;;;;;;6.47;4.18;;;;;;;;;;5065673;28;20116;-64
2022/04/16 09:51:24;;;;;;;6.50;4.20;;;;;;;;;;5040689;28;20122;-62
2022/04/16 09:53:53;;;;;;;9.05;5.20;;;;;;;;;;5045604;28;20594;-62
2022/04/16 09:56:20;;;;;;;7.82;5.40;;;;;;;;;;5044407;28;20040;-62
2022/04/16 09:58:52;;;;;;;7.53;4.85;;;;;;;;;;5044116;28;20120;-62
2022/04/16 10:01:19;;;;;;;10.52;5.50;;;;;;;;;;5042723;28;20037;-64
2022/04/16 10:03:46;;;;;;;8.82;5.75;;;;;;;;;;5044037;28;20099;-64
2022/04/16 10:06:13;;;;;;;7.85;5.30;;;;;;;;;;5021846;28;20042;-64
2022/04/16 10:08:40;;;;;;;10.48;5.90;;;;;;;;;;5045987;28;20502;-64
2022/04/16 10:11:07;;;;;;;7.20;3.95;;;;;;;;;;5027015;28;20485;-64
2022/04/16 10:13:41;;;;;;;6.68;4.40;;;;;;;;;;5044008;28;20146;-64
2022/04/16 10:16:07;;;;;;;5.45;3.90;;;;;;;;;;5044703;28;20045;-64
2022/04/16 10:18:35;;;;;;;11.88;5.13;;;;;;;;;;5045663;28;20072;-64
2022/04/16 10:21:02;;;;;;;5.13;3.75;;;;;;;;;;5043987;28;20469;-64
2022/04/16 10:23:37;;;;;;;5.47;3.78;;;;;;;;;;5037814;28;20129;-64
2022/04/16 10:26:09;;;;;;;8.32;4.65;;;;;;;;;;5038182;28;20080;-64
2022/04/16 10:28:42;;;;;;;4.97;3.70;;;;;;;;;;5044926;28;20036;-64
2022/04/16 10:31:30;;;;;;;5.20;3.88;;;;;;;;;;5044445;28;20045;-64
2022/04/16 10:33:58;;;;;;;7.22;4.47;;;;;;;;;;5037251;28;20050;-64
2022/04/16 10:36:32;;;;;;;5.07;3.47;;;;;;;;;;5046744;28;20044;-64
2022/04/16 10:38:59;;;;;;;7.03;3.30;;;;;;;;;;5043933;28;20487;-64
2022/04/16 10:41:26;;;;;;;4.30;2.70;;;;;;;;;;5045092;28;20051;-64
2022/04/16 10:43:55;;;;;;;5.60;3.10;;;;;;;;;;5042621;28;20040;-64
2022/04/16 10:46:21;;;;;;;5.82;4.20;;;;;;;;;;5041580;28;20048;-65
2022/04/16 10:48:49;;;;;;;5.25;3.20;;;;;;;;;;5041436;28;20566;-64
2022/04/16 10:51:17;;;;;;;5.78;3.33;;;;;;;;;;5075908;28;20072;-65
2022/04/16 10:53:43;;;;;;;4.78;2.85;;;;;;;;;;5079374;28;20498;-62
2022/04/16 10:56:20;;;;;;;4.13;2.40;;;;;;;;;;5062465;28;20142;-61
2022/04/16 10:58:47;;;;;;;5.55;2.80;;;;;;;;;;5064318;28;20086;-62
2022/04/16 11:01:23;;;;;;;4.32;2.53;;;;;;;;;;5084784;28;20410;-62
2022/04/16 11:03:49;;;;;;;5.28;2.47;;;;;;;;;;5083715;28;20093;-62
2022/04/16 11:06:17;;;;;;;3.42;2.63;;;;;;;;;;5080998;28;20035;-62
2022/04/16 11:08:45;;;;;;;3.80;2.40;;;;;;;;;;5086142;28;20066;-62
2022/04/16 11:11:13;;;;;;;3.30;2.42;;;;;;;;;;5083018;28;20390;-62
2022/04/16 11:13:39;;;;;;;4.90;2.55;;;;;;;;;;5083470;28;20445;-64
2022/04/16 11:16:06;;;;;;;4.40;2.33;;;;;;;;;;5081142;28;20105;-64
2022/04/16 11:18:41;;;;;;;3.67;2.10;;;;;;;;;;5083599;28;20060;-64
2022/04/16 11:21:11;;;;;;;6.10;2.92;;;;;;;;;;5083391;28;20035;-62
2022/04/16 11:23:41;;;;;;;4.93;2.83;;;;;;;;;;5083834;28;20074;-62
2022/04/16 11:34:30;;;;;;;4.97;2.28;;;;;;;;;;5063159;28;21788;-62
2022/04/16 11:36:58;;;;;;;4.80;2.08;;;;;;;;;;5079567;28;20036;-65
2022/04/16 11:39:28;;;;;;;4.57;2.30;;;;;;;;;;5062025;28;20052;-64
2022/04/16 11:41:59;;;;;;;3.47;2.00;;;;;;;;;;5082759;28;20110;-64
2022/04/16 11:44:32;;;;;;;2.75;1.63;;;;;;;;;;5084867;28;20036;-64
2022/04/16 11:47:02;;;;;;;4.20;2.22;;;;;;;;;;5082758;28;20123;-64
2022/04/16 11:49:29;;;;;;;3.33;1.77;;;;;;;;;;5083647;28;20101;-63
2022/04/16 11:51:55;;;;;;;5.10;2.03;;;;;;;;;;5084102;28;20085;-64
2022/04/16 11:54:30;;;;;;;2.83;1.90;;;;;;;;;;5081895;28;20036;-64
2022/04/16 11:56:57;;;;;;;2.92;1.63;;;;;;;;;;5082316;28;20083;-63
2022/04/16 11:59:24;;;;;;;4.28;1.55;;;;;;;;;;5082215;28;20617;-63
2022/04/16 12:01:58;;;;;;;3.25;2.38;;;;;;;;;;5084714;28;20122;-63
2022/04/16 12:04:43;;;;;;;3.00;1.83;;;;;;;;;;5081873;28;20123;-65
2022/04/16 12:07:13;;;;;;;2.42;1.50;;;;;;;;;;5065190;28;20090;-64
2022/04/16 12:09:46;;;;;;;3.65;2.20;;;;;;;;;;5082002;28;20040;-63
2022/04/16 12:12:14;;;;;;;4.28;2.65;;;;;;;;;;5047370;28;20044;-65
2022/04/16 12:14:50;;;;;;;2.30;1.65;;;;;;;;;;5083641;28;20100;-64
2022/04/16 12:17:22;;;;;;;2.85;1.90;;;;;;;;;;5065017;28;20047;-65
2022/04/16 12:19:48;;;;;;;;;;;;;;;;;;5083301;28;20073;-65
2022/04/16 12:22:18;;;;;;;2.10;1.42;;;;;;;;;;5084355;28;20340;-64
2022/04/16 12:24:44;;;;;;;2.38;1.52;;;;;;;;;;5082788;28;20040;-62
2022/04/16 12:27:10;;;;;;;2.38;1.60;;;;;;;;;;5083449;28;20409;-63
2022/04/16 12:29:36;;;;;;;1.27;1.10;;;;;;;;;;5080850;28;20036;-63
2022/04/16 12:32:02;;;;;;;3.13;1.52;;;;;;;;;;5081262;28;20411;-63
2022/04/16 12:34:28;;;;;;;2.47;1.23;;;;;;;;;;5081390;28;20044;-63
2022/04/16 12:36:55;;;;;;;2.58;1.30;;;;;;;;;;5079449;28;20139;-63
2022/04/16 12:39:23;;;;;;;3.55;1.73;;;;;;;;;;5083112;28;20047;-62
2022/04/16 12:41:50;;;;;;;3.00;1.20;;;;;;;;;;5082922;28;20204;-63
2022/04/16 12:44:16;;;;;;;1.38;1.00;;;;;;;;;;5081278;28;20122;-63
2022/04/16 12:46:42;;;;;;;2.15;1.08;;;;;;;;;;5080060;28;20051;-62
2022/04/16 12:49:08;;;;;;;2.72;0.90;;;;;;;;;;5079251;28;20527;-63
2022/04/16 12:51:35;;;;;;;2.90;1.00;;;;;;;;;;5064475;28;20055;-62
2022/04/16 12:54:01;;;;;;;7.10;1.40;;;;;;;;;;5084029;28;20489;-63
2022/04/16 12:56:27;;;;;;;1.80;0.85;;;;;;;;;;5081748;28;20032;-63
2022/04/16 12:58:53;;;;;;;2.55;0.90;;;;;;;;;;5082293;28;20032;-62
2022/04/16 13:01:19;;;;;;;1.15;0.60;;;;;;;;;;5083099;28;20523;-63
2022/04/16 13:03:45;;;;;;;2.75;0.77;;;;;;;;;;5076465;28;20054;-63
2022/04/16 13:06:11;;;;;;;1.40;0.70;;;;;;;;;;5056329;28;20044;-62
2022/04/16 13:08:37;;;;;;;2.70;0.63;;;;;;;;;;5079191;28;20052;-63
2022/04/16 13:11:06;;;;;;;1.63;0.85;;;;;;;;;;5076357;28;20046;-63
2022/04/16 13:13:32;;;;;;;0.70;0.55;;;;;;;;;;5083167;28;20059;-63
2022/04/16 13:15:58;;;;;;;2.72;0.90;;;;;;;;;;5080128;28;20047;-63
2022/04/16 13:18:24;;;;;;;1.08;0.70;;;;;;;;;;5080505;28;20795;-63
2022/04/16 13:20:50;;;;;;;1.50;1.00;;;;;;;;;;5044956;28;20090;-63
2022/04/16 13:23:16;;;;;;;1.73;0.85;;;;;;;;;;5082789;28;20048;-63
2022/04/16 13:25:43;;;;;;;0.73;0.60;;;;;;;;;;5064750;28;20516;-63
2022/04/16 13:28:09;;;;;;;2.60;0.80;;;;;;;;;;5078256;28;20132;-63
2022/04/16 13:30:35;;;;;;;1.20;0.70;;;;;;;;;;5080057;28;20040;-62
2022/04/16 13:33:01;;;;;;;0.57;0.57;;;;;;;;;;5080658;28;20036;-63
2022/04/16 13:35:27;;;;;;;1.40;0.90;;;;;;;;;;5060680;28;20404;-62
2022/04/16 13:37:53;;;;;;;1.60;1.20;;;;;;;;;;5080233;28;20120;-63
2022/04/16 13:43:04;;;;;;;2.15;0.90;;;;;;;;;;5082441;28;20063;-63
2022/04/16 13:45:30;;;;;;;1.25;1.00;;;;;;;;;;5081958;28;20050;-63
2022/04/16 13:47:57;;;;;;;2.33;0.90;;;;;;;;;;5079306;28;20033;-63
2022/04/16 13:50:23;;;;;;;4.75;1.00;;;;;;;;;;5078502;28;20052;-63
2022/04/16 13:52:49;;;;;;;1.95;0.90;;;;;;;;;;5072932;28;20127;-63
2022/04/16 13:55:15;;;;;;;2.35;1.10;;;;;;;;;;5073308;28;20044;-63
2022/04/16 13:57:41;;;;;;;2.22;1.00;;;;;;;;;;5048826;28;20044;-63
2022/04/16 14:00:08;;;;;;;7.22;1.67;;;;;;;;;;5058298;28;20298;-65
2022/04/16 14:02:34;;;;;;;2.10;0.98;;;;;;;;;;5056062;28;20117;-65
2022/04/16 14:05:42;;;;;;;2.30;1.38;;;;;;;;;;5078776;28;20504;-65
2022/04/16 14:07:49;;;;;;;5.13;1.25;;;;;;;;;;5062797;28;20064;-65
2022/04/16 14:10:15;;;;;;;2.85;1.15;;;;;;;;;;5082202;28;20093;-65
2022/04/16 14:12:44;;;;;;;1.77;1.00;;;;;;;;;;5068106;28;20117;-66
2022/04/16 14:15:10;;;;;;;2.63;1.00;;;;;;;;;;5071555;28;20044;-66
2022/04/16 14:17:36;;;;;;;3.00;1.70;;;;;;;;;;5074776;28;20397;-65
2022/04/16 14:20:03;;;;;;;1.63;1.25;;;;;;;;;;5083096;28;20048;-63
2022/04/16 14:22:30;;;;;;;2.63;1.08;;;;;;;;;;5089080;28;20040;-62
2022/04/16 14:24:56;;;;;;;3.15;1.52;;;;;;;;;;5081949;28;20107;-66
2022/04/16 14:27:22;;;;;;;1.23;0.90;;;;;;;;;;5081197;28;20035;-63
2022/04/16 14:29:50;;;;;;;2.67;0.80;;;;;;;;;;5090641;28;20035;-63
2022/04/16 14:32:16;;;;;;;2.05;1.05;;;;;;;;;;5083669;28;20050;-64
2022/04/16 14:34:42;;;;;;;1.55;0.90;;;;;;;;;;5086576;28;20408;-64
2022/04/16 14:37:09;;;;;;;5.35;2.05;;;;;;;;;;5066655;28;20131;-64
2022/04/16 14:39:35;;;;;;;20.23;8.25;;;;;;;;;;5079473;28;20048;-65
2022/04/16 14:42:02;;;;;;;2.03;1.10;;;;;;;;;;5083585;28;20473;-64
2022/04/16 14:44:28;;;;;;;3.75;2.15;;;;;;;;;;5054854;28;20414;-64
2022/04/16 14:46:56;;;;;;;4.80;2.88;;;;;;;;;;5060323;28;20047;-64
2022/04/16 14:49:23;;;;;;;6.57;2.33;;;;;;;;;;5066361;28;20040;-64
2022/04/16 14:51:51;;;;;;;7.03;2.92;;;;;;;;;;5083665;28;20055;-64
2022/04/16 14:54:17;;;;;;;3.65;1.55;;;;;;;;;;5087587;28;20044;-61
2022/04/16 14:56:44;;;;;;;2.42;1.40;;;;;;;;;;5085806;28;20600;-61